createdAt,value
2023-12-23T00:00:47.441Z,100365.69
2023-12-23T00:05:48.910Z,100374.84
2023-12-23T00:10:50.350Z,100398.66
2023-12-23T00:15:51.756Z,100406.28
2023-12-23T00:20:53.182Z,100411.13
2023-12-23T00:25:55.935Z,100402.34
2023-12-23T00:30:57.399Z,100409.91
2023-12-23T00:35:58.755Z,100445.28
2023-12-23T00:41:00.225Z,100423.50
2023-12-23T00:46:01.639Z,100441.13
2023-12-23T00:51:03.029Z,100431.72
2023-12-23T00:56:04.630Z,100445.34
2023-12-23T01:01:08.028Z,100447.47
2023-12-23T01:06:09.408Z,100454.53
2023-12-23T01:11:11.952Z,100456.94
2023-12-23T01:16:13.475Z,100458.47
2023-12-23T01:21:14.907Z,100451.34
2023-12-23T01:26:16.531Z,100444.22
2023-12-23T01:31:18.958Z,100449.09
2023-12-23T01:36:20.534Z,100463.69
2023-12-23T01:41:21.976Z,100446.69
2023-12-23T01:46:23.384Z,100464.69
2023-12-23T01:51:25.642Z,100441.19
2023-12-23T01:56:27.032Z,100436.22
2023-12-23T02:01:29.690Z,100439.16
2023-12-23T02:06:31.045Z,100433.03
2023-12-23T02:11:43.861Z,100431.38
2023-12-23T02:16:45.365Z,100433.81
2023-12-23T02:21:46.781Z,100440.19
2023-12-23T02:26:51.732Z,100432.09
2023-12-23T02:31:54.286Z,100432.56
2023-12-23T02:36:56.932Z,100427.38
2023-12-23T02:41:58.529Z,100422.97
2023-12-23T02:47:00.030Z,100408.69
2023-12-23T02:52:01.421Z,100402.69
2023-12-23T02:57:02.830Z,100396.69
2023-12-23T03:02:04.288Z,100385.97
2023-12-23T03:07:05.732Z,100372.34
2023-12-23T03:12:07.460Z,100363.16
2023-12-23T03:17:08.879Z,100360.03
2023-12-23T03:22:10.327Z,100359.22
2023-12-23T03:27:11.761Z,100360.94
2023-12-23T03:32:13.173Z,100350.28
2023-12-23T03:37:14.677Z,100341.22
2023-12-23T03:42:16.070Z,100324.28
2023-12-23T03:47:17.503Z,100317.50
2023-12-23T03:52:18.884Z,100309.44
2023-12-23T03:57:20.278Z,100299.22
2023-12-23T04:02:21.665Z,100302.72
2023-12-23T04:07:23.139Z,100293.88
2023-12-23T04:12:24.586Z,100299.75
2023-12-23T04:17:26.134Z,100303.16
2023-12-23T04:22:27.696Z,100293.66
2023-12-23T04:27:29.030Z,100293.66
2023-12-23T04:32:30.454Z,100305.03
2023-12-23T04:37:31.930Z,100286.44
2023-12-23T04:42:33.281Z,100280.19
2023-12-23T04:47:34.665Z,100288.25
2023-12-23T04:52:36.049Z,100287.88
2023-12-23T04:57:37.977Z,100289.41
2023-12-23T05:02:39.358Z,100290.84
2023-12-23T05:07:40.749Z,100290.28
2023-12-23T05:12:42.170Z,100281.88
2023-12-23T05:17:44.324Z,100261.19
2023-12-23T05:22:45.771Z,100255.41
2023-12-23T05:27:47.132Z,100243.50
2023-12-23T05:32:48.822Z,100239.63
2023-12-23T05:37:50.371Z,100247.06
2023-12-23T05:42:52.000Z,100247.78
2023-12-23T05:47:53.588Z,100250.63
2023-12-23T05:52:55.382Z,100247.09
2023-12-23T05:57:56.890Z,100244.66
2023-12-23T06:02:58.246Z,100237.88
2023-12-23T06:07:59.832Z,100228.59
2023-12-23T06:13:01.382Z,100233.81
2023-12-23T06:18:03.769Z,100227.47
2023-12-23T06:23:05.432Z,100217.06
2023-12-23T06:28:06.813Z,100226.28
2023-12-23T06:33:08.226Z,100227.50
2023-12-23T06:38:09.720Z,100215.88
2023-12-23T06:43:43.817Z,100227.47
2023-12-23T06:48:34.665Z,100242.38
2023-12-23T06:53:36.569Z,100230.41
2023-12-23T06:58:37.939Z,100241.03
2023-12-23T07:03:39.335Z,100238.00
2023-12-23T07:08:40.935Z,100219.28
2023-12-23T07:13:42.380Z,100227.94
2023-12-23T07:18:44.079Z,100246.41
2023-12-23T07:23:45.788Z,100243.59
2023-12-23T07:28:47.234Z,100244.78
2023-12-23T07:33:48.761Z,100253.06
2023-12-23T07:38:50.173Z,100252.47
2023-12-23T07:43:51.779Z,100240.78
2023-12-23T07:48:53.207Z,100257.03
2023-12-23T07:53:54.764Z,100251.69
2023-12-23T07:58:58.835Z,100251.13
2023-12-23T08:04:00.446Z,100243.09
2023-12-23T08:09:01.966Z,100250.53
2023-12-23T08:14:04.125Z,100249.78
2023-12-23T08:19:05.898Z,100258.59
2023-12-23T08:24:07.411Z,100265.78
2023-12-23T08:29:08.819Z,100267.63
2023-12-23T08:34:10.381Z,100264.25
2023-12-23T08:39:11.834Z,100250.59
2023-12-23T08:44:13.250Z,100262.09
2023-12-23T08:49:14.689Z,100244.28
2023-12-23T08:54:16.255Z,100253.31
2023-12-23T08:59:17.768Z,100255.94
2023-12-23T09:04:19.327Z,100255.91
2023-12-23T09:09:20.720Z,100257.94
2023-12-23T09:14:22.619Z,100279.22
2023-12-23T09:19:24.137Z,100278.03
2023-12-23T09:24:25.708Z,100272.41
2023-12-23T09:29:27.179Z,100286.88
2023-12-23T09:34:28.561Z,100294.91
2023-12-23T09:39:29.933Z,100292.69
2023-12-23T09:44:31.590Z,100314.19
2023-12-23T09:49:33.189Z,100319.59
2023-12-23T09:54:38.398Z,100330.22
2023-12-23T09:59:39.794Z,100326.19
2023-12-23T10:04:41.453Z,100307.78
2023-12-23T10:09:42.851Z,100307.59
2023-12-23T10:14:45.202Z,100310.84
2023-12-23T10:19:49.791Z,100312.66
2023-12-23T10:24:51.318Z,100318.66
2023-12-23T10:29:54.147Z,100310.66
2023-12-23T10:34:57.596Z,100303.06
2023-12-23T10:40:18.945Z,100307.84
2023-12-23T10:45:20.592Z,100310.47
2023-12-23T10:50:23.145Z,100313.06
2023-12-23T10:55:25.513Z,100307.47
2023-12-23T11:00:26.893Z,100307.06
2023-12-23T11:05:29.171Z,100314.72
2023-12-23T11:10:31.652Z,100316.94
2023-12-23T11:15:33.002Z,100302.63
2023-12-23T11:20:34.614Z,100320.72
2023-12-23T11:25:36.828Z,100309.09
2023-12-23T11:30:47.679Z,100300.84
2023-12-23T11:35:49.716Z,100309.66
2023-12-23T11:40:51.898Z,100324.53
2023-12-23T11:45:54.045Z,100327.13
2023-12-23T11:50:57.559Z,100317.72
2023-12-23T11:55:59.492Z,100325.16
2023-12-23T12:01:01.463Z,100318.72
2023-12-23T12:06:03.876Z,100315.28
2023-12-23T12:11:05.597Z,100320.72
2023-12-23T12:16:07.098Z,100338.38
2023-12-23T12:21:08.675Z,100317.09
2023-12-23T12:26:10.168Z,100311.50
2023-12-23T12:31:15.687Z,100312.69
2023-12-23T12:36:17.868Z,100311.72
2023-12-23T12:41:19.354Z,100317.91
2023-12-23T12:46:20.770Z,100285.75
2023-12-23T12:51:22.132Z,100313.72
2023-12-23T12:56:23.760Z,100319.31
2023-12-23T13:01:26.158Z,100321.94
2023-12-23T13:06:27.584Z,100331.38
2023-12-23T13:11:29.023Z,100323.34
2023-12-23T13:16:30.444Z,100320.91
2023-12-23T13:21:31.820Z,100329.16
2023-12-23T13:26:33.250Z,100321.53
2023-12-23T13:31:35.114Z,100329.16
2023-12-23T13:36:36.622Z,100348.88
2023-12-23T13:41:38.132Z,100351.88
2023-12-23T13:46:39.587Z,100344.03
2023-12-23T13:51:41.081Z,100353.69
2023-12-23T13:56:42.545Z,100367.94
2023-12-23T14:01:43.926Z,100380.59
2023-12-23T14:06:45.271Z,100393.66
2023-12-23T14:11:46.633Z,100389.84
2023-12-23T14:16:48.004Z,100398.69
2023-12-23T14:21:49.346Z,100399.06
2023-12-23T14:26:50.689Z,100399.88
2023-12-23T14:31:52.108Z,100401.25
2023-12-23T14:36:53.474Z,100404.22
2023-12-23T14:41:54.861Z,100409.44
2023-12-23T14:46:56.251Z,100414.66
2023-12-23T14:51:57.778Z,100404.84
2023-12-23T14:56:59.127Z,100422.28
2023-12-23T15:02:02.943Z,100415.25
2023-12-23T15:07:04.460Z,100427.28
2023-12-23T15:12:06.037Z,100424.69
2023-12-23T15:17:08.316Z,100435.50
2023-12-23T15:22:10.298Z,100430.53
2023-12-23T15:27:12.086Z,100435.31
2023-12-23T15:32:13.497Z,100446.63
2023-12-23T15:37:14.933Z,100436.19
2023-12-23T15:42:16.315Z,100438.59
2023-12-23T15:47:17.675Z,100445.25
2023-12-23T15:52:19.276Z,100444.06
2023-12-23T15:57:20.701Z,100437.84
2023-12-23T16:02:22.132Z,100442.84
2023-12-23T16:07:24.449Z,100451.31
2023-12-23T16:12:25.998Z,100456.53
2023-12-23T16:17:27.521Z,100464.78
2023-12-23T16:22:29.010Z,100465.78
2023-12-23T16:27:30.385Z,100473.78
2023-12-23T16:32:32.373Z,100475.81
2023-12-23T16:37:33.801Z,100486.28
2023-12-23T16:42:35.530Z,100490.25
2023-12-23T16:47:37.282Z,100489.06
2023-12-23T16:52:40.719Z,100485.63
2023-12-23T16:57:42.136Z,100474.78
2023-12-23T17:02:43.559Z,100488.81
2023-12-23T17:07:44.913Z,100492.25
2023-12-23T17:12:47.284Z,100494.63
2023-12-23T17:17:48.838Z,100507.69
2023-12-23T17:22:54.714Z,100521.97
2023-12-23T17:27:57.655Z,100510.94
2023-12-23T17:32:59.976Z,100519.56
2023-12-23T17:38:01.512Z,100519.78
2023-12-23T17:43:03.502Z,100518.13
2023-12-23T17:48:05.274Z,100516.31
2023-12-23T17:53:06.673Z,100522.50
2023-12-23T17:58:08.063Z,100526.28
2023-12-23T18:03:09.458Z,100520.69
2023-12-23T18:08:11.510Z,100514.50
2023-12-23T18:13:20.597Z,100510.09
2023-12-23T18:18:22.318Z,100509.69
2023-12-23T18:23:23.889Z,100508.25
2023-12-23T18:28:25.594Z,100517.09
2023-12-23T18:33:27.046Z,100508.06
2023-12-23T18:38:28.511Z,100512.47
2023-12-23T18:43:29.994Z,100522.31
2023-12-23T18:48:31.495Z,100510.47
2023-12-23T18:53:32.974Z,100509.09
2023-12-23T18:58:34.425Z,100508.28
2023-12-23T19:03:36.394Z,100508.69
2023-12-23T19:08:37.815Z,100505.03
2023-12-23T19:13:39.182Z,100517.47
2023-12-23T19:18:40.631Z,100504.66
2023-12-23T19:23:42.073Z,100521.94
2023-12-23T19:28:43.533Z,100523.53
2023-12-23T19:33:45.120Z,100520.91
2023-12-23T19:38:46.506Z,100530.75
2023-12-23T19:43:49.977Z,100529.78
2023-12-23T19:48:51.520Z,100536.97
2023-12-23T19:53:54.440Z,100534.75
2023-12-23T19:58:56.975Z,100551.03
2023-12-23T20:03:59.104Z,100547.38
2023-12-23T20:09:02.828Z,100546.38
2023-12-23T20:14:04.200Z,100554.00
2023-12-23T20:19:05.692Z,100554.00
2023-12-23T20:24:08.627Z,100560.00
2023-12-23T20:29:10.071Z,100562.81
2023-12-23T20:34:11.500Z,100559.94
2023-12-23T20:39:25.716Z,100564.78
2023-12-23T20:44:31.489Z,100562.28
2023-12-23T20:49:35.824Z,100553.94
2023-12-23T20:54:40.294Z,100558.91
2023-12-23T20:59:42.672Z,100566.91
2023-12-23T21:04:44.062Z,100572.22
2023-12-23T21:09:45.484Z,100562.56
2023-12-23T21:14:47.290Z,100552.94
2023-12-23T21:19:48.678Z,100559.00
2023-12-23T21:24:52.089Z,100554.56
2023-12-23T21:29:53.464Z,100548.19
2023-12-23T21:34:54.871Z,100535.50
2023-12-23T21:39:56.368Z,100536.75
2023-12-23T21:44:57.720Z,100534.88
2023-12-23T21:49:59.085Z,100534.28
2023-12-23T21:55:00.935Z,100536.47
2023-12-23T22:00:02.576Z,100534.84
2023-12-23T22:05:04.118Z,100532.66
2023-12-23T22:10:05.917Z,100520.44
2023-12-23T22:15:08.215Z,100508.00
2023-12-23T22:20:09.977Z,100527.06
2023-12-23T22:25:11.351Z,100535.50
2023-12-23T22:30:13.005Z,100530.75
2023-12-23T22:35:14.558Z,100532.16
2023-12-23T22:40:16.095Z,100534.50
2023-12-23T22:45:17.934Z,100522.13
2023-12-23T22:50:19.327Z,100518.84
2023-12-23T22:55:20.746Z,100521.00
2023-12-23T23:00:24.628Z,100517.38
2023-12-23T23:05:26.021Z,100503.91
2023-12-23T23:10:27.711Z,100493.25
2023-12-23T23:15:29.153Z,100483.25
2023-12-23T23:20:31.229Z,100480.03
2023-12-23T23:25:32.684Z,100460.00
2023-12-23T23:30:34.072Z,100448.34
2023-12-23T23:35:35.503Z,100447.94
2023-12-23T23:40:36.989Z,100423.06
2023-12-23T23:45:38.337Z,100418.44
2023-12-23T23:50:39.966Z,100426.28
2023-12-23T23:55:42.631Z,100419.84
